Time;durP1;ratioP1;P1;durP2;ratioP2;P2;SDS_P1;SDS_P2;PMS_P1;PMS_P2;Temp;Humidity;BMP_temperature;BMP_pressure;BME280_temperature;BME280_humidity;BME280_pressure;Samples;Min_cycle;Max_cycle;Signal;HPM_P1;HPM_P2
2021/12/10 00:00:42;;;;;;;7.47;4.47;;;5.20;85.50;;;;;;5024518;28;20463;-47
2021/12/10 00:03:16;;;;;;;6.23;4.87;;;5.20;85.40;;;;;;5025193;28;20956;-47
2021/12/10 00:05:51;;;;;;;6.10;4.03;;;5.30;85.10;;;;;;5006172;28;20867;-47
2021/12/10 00:08:18;;;;;;;6.23;5.73;;;5.30;85.10;;;;;;5006109;28;20450;-47
2021/12/10 00:10:51;;;;;;;5.40;5.00;;;5.30;85.20;;;;;;5024461;28;20470;-48
2021/12/10 00:13:19;;;;;;;7.10;4.27;;;5.30;85.30;;;;;;5017071;28;20464;-47
2021/12/10 00:15:46;;;;;;;6.20;5.00;;;5.30;85.30;;;;;;5006281;28;20464;-47
2021/12/10 00:18:16;;;;;;;7.30;4.53;;;5.30;85.20;;;;;;5020433;28;20460;-47
2021/12/10 00:20:44;;;;;;;4.53;3.90;;;5.30;85.20;;;;;;5023670;28;20474;-47
2021/12/10 00:23:16;;;;;;;10.07;4.63;;;5.30;85.10;;;;;;5020281;28;20828;-47
2021/12/10 00:25:48;;;;;;;4.50;3.80;;;5.40;84.90;;;;;;5022352;28;20454;-48
2021/12/10 00:28:23;;;;;;;6.20;4.10;;;5.30;85.00;;;;;;5025996;28;20459;-48
2021/12/10 00:31:17;;;;;;;10.93;4.87;;;5.40;85.00;;;;;;5020937;28;20475;-48
2021/12/10 00:34:01;;;;;;;11.40;5.10;;;5.40;85.00;;;;;;5019042;28;20988;-48
2021/12/10 00:36:31;;;;;;;7.50;4.50;;;5.40;84.70;;;;;;5000714;28;20459;-47
2021/12/10 00:38:59;;;;;;;10.10;4.30;;;5.40;84.60;;;;;;5014161;28;20464;-47
2021/12/10 00:41:26;;;;;;;6.87;4.90;;;5.40;84.60;;;;;;5002356;28;20966;-47
2021/12/10 00:43:53;;;;;;;6.33;3.53;;;5.40;84.70;;;;;;5020134;28;20487;-47
2021/12/10 00:46:20;;;;;;;7.30;3.73;;;5.40;84.40;;;;;;5027140;28;20448;-47
2021/12/10 00:48:47;;;;;;;4.03;3.50;;;5.40;83.80;;;;;;5019890;28;20451;-47
2021/12/10 00:51:14;;;;;;;7.50;4.30;;;5.40;83.80;;;;;;5018014;28;20460;-48
2021/12/10 00:53:42;;;;;;;4.50;3.67;;;5.40;83.50;;;;;;5019082;28;20475;-48
2021/12/10 00:56:09;;;;;;;7.77;3.40;;;5.50;83.10;;;;;;5023585;28;20478;-47
2021/12/10 00:58:39;;;;;;;6.60;3.80;;;5.40;83.00;;;;;;5023804;28;20455;-48
2021/12/10 01:01:14;;;;;;;8.13;4.07;;;5.40;82.80;;;;;;5020420;28;20542;-48
2021/12/10 01:03:49;;;;;;;6.97;3.30;;;5.40;83.00;;;;;;5022859;28;20490;-47
2021/12/10 01:06:18;;;;;;;7.00;3.90;;;5.40;82.50;;;;;;5017580;28;21209;-48
2021/12/10 01:08:48;;;;;;;5.13;3.30;;;5.40;82.40;;;;;;5019313;28;20479;-48
2021/12/10 01:11:30;;;;;;;4.30;2.80;;;5.40;82.30;;;;;;5020302;28;20483;-48
2021/12/10 01:14:11;;;;;;;7.20;3.90;;;5.40;81.80;;;;;;5016017;28;20475;-48
2021/12/10 01:25:08;;;;;;;8.00;3.03;;;5.30;82.60;;;;;;5018622;28;20483;-48
2021/12/10 01:27:39;;;;;;;8.00;3.47;;;5.30;82.70;;;;;;5020999;28;20470;-47
2021/12/10 01:30:23;;;;;;;7.93;3.13;;;5.40;82.70;;;;;;5005213;28;20491;-48
2021/12/10 01:32:53;;;;;;;7.20;3.27;;;5.30;83.00;;;;;;5004541;28;20770;-48
2021/12/10 01:35:31;;;;;;;6.33;2.87;;;5.40;82.80;;;;;;5023152;28;20473;-48
2021/12/10 01:38:00;;;;;;;7.57;3.50;;;5.30;83.20;;;;;;5019959;28;20490;-48
2021/12/10 01:40:28;;;;;;;6.37;3.03;;;5.30;83.30;;;;;;5021173;28;20458;-48
2021/12/10 01:43:06;;;;;;;4.70;3.03;;;5.30;83.40;;;;;;5021157;28;20489;-48
2021/12/10 01:45:44;;;;;;;4.23;3.20;;;5.30;83.40;;;;;;5019806;28;20505;-48
2021/12/10 01:48:19;;;;;;;6.90;3.07;;;5.30;83.40;;;;;;5017691;28;20461;-48
2021/12/10 01:50:46;;;;;;;5.20;2.73;;;5.40;83.30;;;;;;5007793;28;20476;-48
2021/12/10 01:53:15;;;;;;;6.27;2.87;;;5.40;83.40;;;;;;5021204;28;20844;-48
2021/12/10 01:55:45;;;;;;;5.00;2.60;;;5.40;83.30;;;;;;5023631;28;20464;-48
2021/12/10 01:58:19;;;;;;;8.07;3.37;;;5.40;83.20;;;;;;5024310;28;20460;-48
2021/12/10 02:01:14;;;;;;;5.97;3.17;;;5.40;83.30;;;;;;5008509;28;20842;-49
2021/12/10 02:03:42;;;;;;;3.93;2.97;;;5.40;83.10;;;;;;5003570;28;20483;-48
2021/12/10 02:06:10;;;;;;;9.33;3.17;;;5.40;83.10;;;;;;5023148;28;20977;-48
2021/12/10 02:08:38;;;;;;;6.10;2.90;;;5.50;82.90;;;;;;5008168;28;20467;-48
2021/12/10 02:11:06;;;;;;;7.00;3.80;;;5.50;82.80;;;;;;5026797;28;20475;-48
2021/12/10 02:13:33;;;;;;;4.07;2.37;;;5.50;82.90;;;;;;5017776;28;20474;-47
2021/12/10 02:16:00;;;;;;;6.00;2.87;;;5.50;82.90;;;;;;5019320;28;20820;-48
2021/12/10 02:18:27;;;;;;;9.17;2.87;;;5.60;82.40;;;;;;5023220;28;20464;-48
2021/12/10 02:21:00;;;;;;;2.90;2.13;;;5.50;82.40;;;;;;5025831;28;20961;-48
2021/12/10 02:23:28;;;;;;;4.60;2.40;;;5.50;82.10;;;;;;5020211;28;20821;-48
2021/12/10 02:25:56;;;;;;;5.53;2.70;;;5.50;81.10;;;;;;5018600;28;20956;-48
2021/12/10 02:28:23;;;;;;;3.97;2.40;;;5.50;81.60;;;;;;5023607;28;20462;-48
2021/12/10 02:30:50;;;;;;;2.10;2.00;;;5.40;81.60;;;;;;5025420;28;20470;-48
2021/12/10 02:33:17;;;;;;;4.47;2.70;;;5.40;81.30;;;;;;5022040;28;20468;-48
2021/12/10 02:35:43;;;;;;;7.20;2.47;;;5.40;81.20;;;;;;5021369;28;20841;-47
2021/12/10 02:38:10;;;;;;;4.83;1.90;;;5.40;80.40;;;;;;5006341;28;20471;-48
2021/12/10 02:40:38;;;;;;;7.70;2.40;;;5.40;80.20;;;;;;5012022;28;20474;-48
2021/12/10 02:43:09;;;;;;;4.40;2.23;;;5.40;79.70;;;;;;5027856;28;20464;-48
2021/12/10 02:45:37;;;;;;;6.43;2.60;;;5.40;80.00;;;;;;5014135;28;20610;-48
2021/12/10 02:48:06;;;;;;;2.60;2.20;;;5.40;80.00;;;;;;5022525;28;20940;-48
2021/12/10 02:50:35;;;;;;;4.50;2.30;;;5.40;80.10;;;;;;5024666;28;21018;-47
2021/12/10 02:53:04;;;;;;;3.80;1.90;;;5.30;80.70;;;;;;5022443;28;20463;-48
2021/12/10 02:55:32;;;;;;;2.97;2.33;;;5.30;80.30;;;;;;5024479;28;20459;-48
2021/12/10 02:58:05;;;;;;;6.20;2.47;;;5.30;80.80;;;;;;5019962;28;20834;-48
2021/12/10 03:00:40;;;;;;;4.00;2.13;;;5.20;81.20;;;;;;5018251;28;20472;-48
2021/12/10 03:03:07;;;;;;;3.97;2.30;;;5.20;81.40;;;;;;5023087;28;20466;-48
2021/12/10 03:05:34;;;;;;;3.03;2.10;;;5.20;81.50;;;;;;5005456;28;20492;-48
2021/12/10 03:08:01;;;;;;;5.30;1.70;;;5.20;81.70;;;;;;5023736;28;20530;-48
2021/12/10 03:10:30;;;;;;;7.50;2.47;;;5.30;81.70;;;;;;5007192;28;20447;-48
2021/12/10 03:12:58;;;;;;;4.63;2.50;;;5.20;81.70;;;;;;5003047;28;20478;-48
2021/12/10 03:15:28;;;;;;;10.90;2.20;;;5.30;81.60;;;;;;5020930;28;21004;-48
2021/12/10 03:17:57;;;;;;;4.93;2.00;;;5.30;81.40;;;;;;5021721;28;20927;-49
2021/12/10 03:20:28;;;;;;;6.47;1.73;;;5.30;81.20;;;;;;5023394;28;20463;-48
2021/12/10 03:22:57;;;;;;;6.37;2.27;;;5.30;81.20;;;;;;5021606;28;20454;-48
2021/12/10 03:25:24;;;;;;;3.63;1.90;;;5.30;81.20;;;;;;5023708;28;20490;-48
2021/12/10 03:27:51;;;;;;;3.73;2.50;;;5.20;81.20;;;;;;5026358;28;20451;-48
2021/12/10 03:30:23;;;;;;;2.53;1.93;;;5.20;81.20;;;;;;5021286;28;20498;-48
2021/12/10 03:32:49;;;;;;;5.70;2.80;;;5.20;81.30;;;;;;5001222;28;20924;-48
2021/12/10 03:35:23;;;;;;;4.97;1.80;;;5.20;81.30;;;;;;5024020;28;20844;-48
2021/12/10 03:37:50;;;;;;;4.53;1.50;;;5.20;81.30;;;;;;5020115;28;20466;-48
2021/12/10 03:40:18;;;;;;;2.47;1.70;;;5.20;81.30;;;;;;5022342;28;20460;-48
2021/12/10 03:42:47;;;;;;;3.80;1.70;;;5.10;81.20;;;;;;5024583;28;20467;-49
2021/12/10 03:45:17;;;;;;;6.10;2.53;;;5.10;81.30;;;;;;5027223;28;20518;-45
2021/12/10 03:47:45;;;;;;;6.53;2.30;;;5.00;81.50;;;;;;5022352;28;20459;-45
2021/12/10 03:50:22;;;;;;;6.60;2.37;;;5.00;81.60;;;;;;5022161;28;20804;-45
2021/12/10 03:52:49;;;;;;;9.40;3.63;;;5.00;81.70;;;;;;5023180;28;20459;-45
2021/12/10 03:55:16;;;;;;;4.37;2.67;;;4.90;82.10;;;;;;5001987;28;20472;-45
2021/12/10 03:57:42;;;;;;;4.23;3.17;;;4.90;82.40;;;;;;5022038;28;20460;-45
2021/12/10 04:00:10;;;;;;;6.60;4.00;;;4.90;82.40;;;;;;5030871;28;20484;-48
2021/12/10 04:02:37;;;;;;;5.90;3.80;;;4.90;82.50;;;;;;5021757;28;21736;-48
2021/12/10 04:05:04;;;;;;;4.63;3.90;;;4.80;82.80;;;;;;5039597;28;20490;-48
2021/12/10 04:07:30;;;;;;;8.03;4.17;;;4.70;83.10;;;;;;5032387;28;20471;-48
2021/12/10 04:09:57;;;;;;;7.40;4.50;;;4.60;83.30;;;;;;5020339;28;20465;-48
2021/12/10 04:12:24;;;;;;;10.30;4.67;;;4.60;83.40;;;;;;5023730;28;20542;-48
2021/12/10 04:14:53;;;;;;;7.33;5.43;;;4.60;83.60;;;;;;5037035;28;20463;-48
2021/12/10 04:17:21;;;;;;;7.97;3.93;;;4.50;83.60;;;;;;5025716;28;20811;-48
2021/12/10 04:19:50;;;;;;;10.10;5.07;;;4.50;83.80;;;;;;5040536;28;20459;-48
2021/12/10 04:22:19;;;;;;;12.90;5.10;;;4.40;83.90;;;;;;5035495;28;20492;-48
2021/12/10 04:24:46;;;;;;;7.17;4.43;;;4.40;83.80;;;;;;5040911;28;20507;-48
2021/12/10 04:27:15;;;;;;;7.33;5.10;;;4.30;83.80;;;;;;5038340;28;20456;-48
2021/12/10 04:29:42;;;;;;;5.77;4.43;;;4.30;83.80;;;;;;5030185;28;20509;-48
2021/12/10 04:32:12;;;;;;;6.20;4.10;;;4.30;83.80;;;;;;5035621;28;20522;-48
2021/12/10 04:34:40;;;;;;;9.70;4.87;;;4.20;83.90;;;;;;5026682;28;20463;-48
2021/12/10 04:37:10;;;;;;;8.10;4.70;;;4.20;83.90;;;;;;5033491;28;20464;-48
2021/12/10 04:39:44;;;;;;;8.10;3.90;;;4.20;83.80;;;;;;5023017;28;20470;-48
2021/12/10 04:42:12;;;;;;;8.53;4.30;;;4.20;83.80;;;;;;5036041;28;20550;-48
2021/12/10 04:44:39;;;;;;;4.57;4.17;;;4.20;83.50;;;;;;5038412;28;21038;-48
2021/12/10 04:47:06;;;;;;;4.87;4.30;;;4.10;83.50;;;;;;5024913;28;20459;-48
2021/12/10 04:49:33;;;;;;;3.90;3.27;;;4.10;83.70;;;;;;5030860;28;20494;-48
2021/12/10 04:52:00;;;;;;;4.33;3.93;;;4.10;83.70;;;;;;5036921;28;20456;-48
2021/12/10 04:54:27;;;;;;;5.43;4.10;;;4.00;83.50;;;;;;5015401;28;20452;-48
2021/12/10 04:56:57;;;;;;;9.37;4.77;;;4.00;83.40;;;;;;5038331;28;20459;-48
2021/12/10 04:59:27;;;;;;;5.10;4.10;;;4.00;83.40;;;;;;5026205;28;20452;-48
2021/12/10 05:01:56;;;;;;;6.93;3.67;;;4.00;83.30;;;;;;5039430;28;20459;-48
2021/12/10 05:04:25;;;;;;;5.23;3.53;;;4.00;83.30;;;;;;5039840;28;20491;-48
2021/12/10 05:06:52;;;;;;;9.60;4.47;;;3.90;83.20;;;;;;5035033;28;20450;-48
2021/12/10 05:09:20;;;;;;;8.53;3.80;;;3.90;83.10;;;;;;5036746;28;20451;-48
2021/12/10 05:11:49;;;;;;;8.67;4.97;;;3.90;83.10;;;;;;5040093;28;20465;-48
2021/12/10 05:14:16;;;;;;;4.30;3.43;;;3.80;83.30;;;;;;5035840;28;20456;-48
2021/12/10 05:16:45;;;;;;;12.63;3.90;;;3.80;83.30;;;;;;5040607;28;20464;-48
2021/12/10 05:19:16;;;;;;;8.67;3.73;;;3.80;83.40;;;;;;5022887;28;20463;-48
2021/12/10 05:21:45;;;;;;;10.63;4.30;;;3.80;83.40;;;;;;5020039;28;20480;-48
2021/12/10 05:24:12;;;;;;;6.50;4.57;;;3.80;83.30;;;;;;5034984;28;20460;-48
2021/12/10 05:26:39;;;;;;;4.37;3.10;;;3.80;83.30;;;;;;5041049;28;21137;-48
2021/12/10 05:29:07;;;;;;;7.30;4.40;;;3.80;83.00;;;;;;5026025;28;20710;-48
2021/12/10 05:31:39;;;;;;;5.37;3.97;;;3.80;83.10;;;;;;5037342;28;20555;-48
2021/12/10 05:34:06;;;;;;;7.20;4.50;;;3.70;83.10;;;;;;5042285;28;20460;-48
2021/12/10 05:36:33;;;;;;;7.67;4.00;;;3.70;83.10;;;;;;5037963;28;20471;-48
2021/12/10 05:39:00;;;;;;;4.50;4.07;;;3.70;83.10;;;;;;5029668;28;20458;-48
2021/12/10 05:41:27;;;;;;;5.27;3.77;;;3.60;83.10;;;;;;5043122;28;20469;-48
2021/12/10 05:43:54;;;;;;;5.93;3.40;;;3.60;83.20;;;;;;5039852;28;20490;-48
2021/12/10 05:46:21;;;;;;;6.80;3.53;;;3.60;83.30;;;;;;5020766;28;20581;-48
2021/12/10 05:48:48;;;;;;;6.83;3.40;;;3.60;83.40;;;;;;5025937;28;20459;-48
2021/12/10 05:51:15;;;;;;;5.87;3.53;;;3.60;83.30;;;;;;5044851;28;20973;-48
2021/12/10 05:53:42;;;;;;;9.80;3.40;;;3.60;83.30;;;;;;5035896;28;20451;-48
2021/12/10 05:56:09;;;;;;;5.77;2.90;;;3.60;83.20;;;;;;5040630;28;20466;-48
2021/12/10 05:58:37;;;;;;;5.70;3.87;;;3.50;83.00;;;;;;5038438;28;20467;-48
2021/12/10 06:01:08;;;;;;;4.90;2.73;;;3.50;83.00;;;;;;5023642;28;20467;-48
2021/12/10 06:03:37;;;;;;;3.80;2.90;;;3.50;83.10;;;;;;5040385;28;20472;-51
2021/12/10 06:06:05;;;;;;;4.50;3.80;;;3.50;83.20;;;;;;5038502;28;20575;-48
2021/12/10 06:08:32;;;;;;;6.53;3.73;;;3.50;83.20;;;;;;5038815;28;20458;-48
2021/12/10 06:11:00;;;;;;;5.63;3.40;;;3.50;83.20;;;;;;5025716;28;20462;-48
2021/12/10 06:13:28;;;;;;;4.90;2.80;;;3.50;83.10;;;;;;5025295;28;20447;-48
2021/12/10 06:15:55;;;;;;;7.10;4.43;;;3.50;83.20;;;;;;5038511;28;20452;-48
2021/12/10 06:18:22;;;;;;;4.87;3.60;;;3.50;83.20;;;;;;5040512;28;20941;-48
2021/12/10 06:20:51;;;;;;;4.30;3.87;;;3.50;83.00;;;;;;5044134;28;20454;-48
2021/12/10 06:23:20;;;;;;;4.57;3.57;;;3.50;83.10;;;;;;5040216;28;20467;-48
2021/12/10 06:25:47;;;;;;;6.33;3.97;;;3.50;83.10;;;;;;5043813;28;20721;-48
2021/12/10 06:28:15;;;;;;;10.47;5.17;;;3.50;83.00;;;;;;5037867;28;20531;-48
2021/12/10 06:30:45;;;;;;;12.50;4.37;;;3.50;82.90;;;;;;5036205;28;20471;-48
2021/12/10 06:33:15;;;;;;;6.57;3.83;;;3.50;82.60;;;;;;5042865;28;20455;-48
2021/12/10 06:35:44;;;;;;;4.00;3.17;;;3.40;82.60;;;;;;5034725;28;20456;-48
2021/12/10 06:38:11;;;;;;;5.57;3.77;;;3.40;82.70;;;;;;5038315;28;20467;-48
2021/12/10 06:40:41;;;;;;;6.40;3.70;;;3.30;82.90;;;;;;5034795;28;20998;-48
2021/12/10 06:43:09;;;;;;;5.27;4.07;;;3.30;82.90;;;;;;5044865;28;21059;-48
2021/12/10 06:45:42;;;;;;;7.63;3.67;;;3.30;83.00;;;;;;5028821;28;21001;-48
2021/12/10 06:48:11;;;;;;;7.80;4.60;;;3.20;83.10;;;;;;5035857;28;20543;-48
2021/12/10 06:50:47;;;;;;;7.27;3.93;;;3.20;83.10;;;;;;5041815;28;20470;-48
2021/12/10 06:53:15;;;;;;;4.20;3.60;;;3.10;83.20;;;;;;5038292;28;20465;-48
2021/12/10 06:55:42;;;;;;;8.03;4.23;;;3.10;83.30;;;;;;5034828;28;20463;-48
2021/12/10 06:58:09;;;;;;;6.00;4.40;;;3.10;83.40;;;;;;5036932;28;20540;-48
2021/12/10 07:00:43;;;;;;;8.87;3.80;;;3.00;83.60;;;;;;5019332;28;20483;-48
2021/12/10 07:03:13;;;;;;;5.43;4.93;;;3.00;83.80;;;;;;5040250;28;20459;-48
2021/12/10 07:05:41;;;;;;;8.30;4.10;;;3.10;83.70;;;;;;5036586;28;20499;-48
2021/12/10 07:08:08;;;;;;;4.37;4.00;;;3.00;83.60;;;;;;5043973;28;20463;-48
2021/12/10 07:10:36;;;;;;;5.23;3.20;;;3.10;83.60;;;;;;5038412;28;20564;-48
2021/12/10 07:13:06;;;;;;;5.40;3.80;;;3.10;83.60;;;;;;5038572;28;20480;-48
2021/12/10 07:15:36;;;;;;;4.90;3.90;;;3.00;83.50;;;;;;5040471;28;20467;-48
2021/12/10 07:18:04;;;;;;;3.80;3.20;;;3.00;83.60;;;;;;5030434;28;20963;-48
2021/12/10 07:20:31;;;;;;;5.57;3.00;;;3.00;83.60;;;;;;5035738;28;20463;-48
2021/12/10 07:22:57;;;;;;;5.03;3.60;;;3.00;83.70;;;;;;5035667;28;20470;-48
2021/12/10 07:25:24;;;;;;;3.87;3.40;;;2.90;83.80;;;;;;5037147;28;20476;-48
2021/12/10 07:27:51;;;;;;;4.97;3.47;;;2.90;84.00;;;;;;5041613;28;20448;-48
2021/12/10 07:30:20;;;;;;;5.60;3.50;;;2.90;84.10;;;;;;5039423;28;20475;-48
2021/12/10 07:32:47;;;;;;;13.70;4.60;;;2.90;84.10;;;;;;5021324;28;20848;-48
2021/12/10 07:35:15;;;;;;;8.17;4.00;;;2.90;84.30;;;;;;5038125;28;20483;-48
2021/12/10 07:37:42;;;;;;;6.30;4.70;;;2.90;84.50;;;;;;5036683;28;20468;-48
2021/12/10 07:40:14;;;;;;;11.43;4.70;;;2.90;84.80;;;;;;5035803;28;20878;-48
2021/12/10 07:42:41;;;;;;;4.87;4.40;;;2.90;84.80;;;;;;5032685;28;20488;-48
2021/12/10 07:45:09;;;;;;;5.70;3.93;;;2.90;84.90;;;;;;5036076;28;20457;-48
2021/12/10 07:47:37;;;;;;;7.57;4.20;;;2.90;84.90;;;;;;5035314;28;22028;-48
2021/12/10 07:50:08;;;;;;;5.73;4.40;;;2.90;84.80;;;;;;5041030;28;20475;-48
2021/12/10 07:52:36;;;;;;;11.13;5.63;;;2.90;84.90;;;;;;5008354;28;20969;-48
2021/12/10 07:55:10;;;;;;;5.90;4.90;;;3.00;84.80;;;;;;5039570;28;20467;-48
2021/12/10 07:57:37;;;;;;;5.80;4.30;;;3.00;85.00;;;;;;5027729;28;20450;-48
2021/12/10 08:00:07;;;;;;;7.33;4.63;;;3.00;85.20;;;;;;5034754;28;20503;-48
2021/12/10 08:02:54;;;;;;;4.70;3.73;;;3.00;85.10;;;;;;5039117;28;20452;-48
2021/12/10 08:05:22;;;;;;;7.17;5.67;;;3.00;85.00;;;;;;5040794;28;20493;-48
2021/12/10 08:07:51;;;;;;;15.20;8.60;;;3.10;85.00;;;;;;5043043;28;20503;-48
2021/12/10 08:10:18;;;;;;;9.23;8.23;;;3.10;85.10;;;;;;5036117;28;20447;-48
2021/12/10 08:12:45;;;;;;;17.00;11.23;;;3.10;85.10;;;;;;5030879;28;20454;-48
2021/12/10 08:15:15;;;;;;;35.20;20.73;;;3.10;85.30;;;;;;5025735;28;20529;-48
2021/12/10 08:17:43;;;;;;;40.20;27.40;;;3.20;85.30;;;;;;5035015;28;20457;-48
2021/12/10 08:20:12;;;;;;;16.67;12.20;;;3.20;85.10;;;;;;5036259;28;20859;-48
2021/12/10 08:22:40;;;;;;;8.37;5.60;;;3.30;85.00;;;;;;5024604;28;20981;-48
2021/12/10 08:25:07;;;;;;;9.20;4.90;;;3.30;84.90;;;;;;5039863;28;20468;-48
2021/12/10 08:27:39;;;;;;;11.83;5.63;;;3.30;84.80;;;;;;5037556;28;20495;-48
2021/12/10 08:30:11;;;;;;;18.40;9.13;;;3.20;84.90;;;;;;5026512;28;20475;-48
2021/12/10 08:32:39;;;;;;;7.60;4.43;;;3.30;85.00;;;;;;5043155;28;20837;-48
2021/12/10 08:35:09;;;;;;;8.67;4.53;;;3.30;85.00;;;;;;5046721;28;20458;-48
2021/12/10 08:37:37;;;;;;;4.43;3.70;;;3.30;85.00;;;;;;5018325;28;20540;-48
2021/12/10 08:40:08;;;;;;;5.30;4.20;;;3.30;85.00;;;;;;5040045;28;20462;-48
2021/12/10 08:42:35;;;;;;;6.20;3.47;;;3.40;85.00;;;;;;5037091;28;20539;-48
2021/12/10 08:45:05;;;;;;;6.10;4.43;;;3.40;84.90;;;;;;5022577;28;20466;-48
2021/12/10 08:47:31;;;;;;;4.07;3.77;;;3.40;84.80;;;;;;5037863;28;20471;-48
2021/12/10 08:49:58;;;;;;;7.70;4.10;;;3.40;84.80;;;;;;5019795;28;20490;-48
2021/12/10 08:52:25;;;;;;;5.57;4.10;;;3.40;84.70;;;;;;5041421;28;20484;-48
2021/12/10 08:54:52;;;;;;;7.50;4.27;;;3.50;84.60;;;;;;5041628;28;20455;-48
2021/12/10 08:57:18;;;;;;;5.87;4.47;;;3.50;84.60;;;;;;5039874;28;20858;-48
2021/12/10 08:59:45;;;;;;;5.23;4.00;;;3.50;84.40;;;;;;5019997;28;20443;-48
2021/12/10 09:02:14;;;;;;;5.13;3.70;;;3.50;84.30;;;;;;5020660;28;20455;-48
2021/12/10 09:04:42;;;;;;;8.50;4.77;;;3.60;84.00;;;;;;5020032;28;20543;-49
2021/12/10 09:07:11;;;;;;;15.57;5.30;;;3.60;83.80;;;;;;5034063;28;20529;-48
2021/12/10 09:09:41;;;;;;;7.07;4.93;;;3.60;83.80;;;;;;5037501;28;20540;-48
2021/12/10 09:12:14;;;;;;;7.53;4.70;;;3.70;83.90;;;;;;5033474;28;20506;-48
2021/12/10 09:14:45;;;;;;;7.53;4.40;;;3.70;83.90;;;;;;5041976;28;20958;-48
2021/12/10 09:17:16;;;;;;;6.17;4.63;;;3.70;84.00;;;;;;5036305;28;20460;-47
2021/12/10 09:19:43;;;;;;;9.63;5.50;;;3.70;84.00;;;;;;5026225;28;20455;-48
2021/12/10 09:22:10;;;;;;;6.10;4.77;;;3.80;83.90;;;;;;5033321;28;20542;-48
2021/12/10 09:24:39;;;;;;;10.00;5.90;;;3.80;83.90;;;;;;5032885;28;20494;-48
2021/12/10 09:27:06;;;;;;;14.97;4.93;;;3.80;83.80;;;;;;5034958;28;20494;-48
2021/12/10 09:29:37;;;;;;;6.63;5.93;;;3.90;83.80;;;;;;5034849;28;20511;-47
2021/12/10 09:32:06;;;;;;;7.80;5.27;;;3.90;83.80;;;;;;5038516;28;20543;-48
2021/12/10 09:34:34;;;;;;;8.77;6.30;;;3.90;83.60;;;;;;5035795;28;20463;-47
2021/12/10 09:37:01;;;;;;;8.03;6.03;;;3.90;83.20;;;;;;5039051;28;20499;-48
2021/12/10 09:39:30;;;;;;;9.60;6.00;;;4.00;82.80;;;;;;5028197;28;20476;-48
2021/12/10 09:41:57;;;;;;;10.57;5.40;;;4.00;82.80;;;;;;5027528;28;20464;-48
2021/12/10 09:44:25;;;;;;;8.30;6.57;;;4.00;82.60;;;;;;5029182;28;21129;-48
2021/12/10 09:46:53;;;;;;;6.33;5.07;;;4.00;82.00;;;;;;5036756;28;20498;-48
2021/12/10 09:49:23;;;;;;;10.60;5.17;;;4.00;82.00;;;;;;5034815;28;20528;-47
2021/12/10 09:51:57;;;;;;;8.50;6.17;;;4.00;82.00;;;;;;5034526;28;21062;-48
2021/12/10 09:54:27;;;;;;;7.57;6.23;;;4.00;81.90;;;;;;5015809;28;20462;-48
2021/12/10 09:56:59;;;;;;;13.30;9.17;;;4.00;81.90;;;;;;5036847;28;20499;-48
2021/12/10 09:59:26;;;;;;;8.40;7.50;;;4.00;81.90;;;;;;5039821;28;20464;-48
2021/12/10 10:01:57;;;;;;;7.00;5.87;;;4.10;82.10;;;;;;5039297;28;20460;-48
2021/12/10 10:04:26;;;;;;;10.63;6.00;;;4.10;82.00;;;;;;5023014;28;20459;-48
2021/12/10 10:06:57;;;;;;;8.30;7.33;;;4.20;82.20;;;;;;5034549;28;20529;-47
2021/12/10 10:09:26;;;;;;;9.50;7.30;;;4.20;82.10;;;;;;5021031;28;20534;-48
2021/12/10 10:12:07;;;;;;;10.63;9.63;;;4.20;82.10;;;;;;5034496;28;20445;-47
2021/12/10 10:14:34;;;;;;;10.13;7.47;;;4.20;81.30;;;;;;5038244;28;20453;-48
2021/12/10 10:17:02;;;;;;;9.10;6.60;;;4.20;81.40;;;;;;5033710;28;20523;-48
2021/12/10 10:19:29;;;;;;;7.20;5.60;;;4.20;81.40;;;;;;5040579;28;20523;-47
2021/12/10 10:21:57;;;;;;;8.73;6.70;;;4.30;81.20;;;;;;5041479;28;20461;-48
2021/12/10 10:24:28;;;;;;;7.47;6.33;;;4.30;81.00;;;;;;5042074;28;20538;-48
2021/12/10 10:27:06;;;;;;;6.53;5.93;;;4.40;80.70;;;;;;5038207;28;20503;-47
2021/12/10 10:29:37;;;;;;;10.13;8.10;;;4.40;80.30;;;;;;5025678;28;20822;-47
2021/12/10 10:32:12;;;;;;;5.70;5.20;;;4.40;79.80;;;;;;5038635;28;20545;-48
2021/12/10 10:34:43;;;;;;;6.20;5.50;;;4.40;79.80;;;;;;5026984;28;20456;-48
2021/12/10 10:37:10;;;;;;;5.23;3.60;;;4.40;79.60;;;;;;5037055;28;20460;-47
2021/12/10 10:39:40;;;;;;;8.50;4.97;;;4.50;79.10;;;;;;5040294;28;20518;-48
2021/12/10 10:42:12;;;;;;;6.70;4.07;;;4.50;78.90;;;;;;5043452;28;20466;-48
2021/12/10 10:44:56;;;;;;;4.77;3.47;;;4.50;78.70;;;;;;5045080;28;20517;-48
2021/12/10 10:47:24;;;;;;;5.33;3.40;;;4.60;78.60;;;;;;5038766;28;20561;-47
2021/12/10 10:49:55;;;;;;;3.33;2.70;;;4.60;77.70;;;;;;5038847;28;20451;-48
2021/12/10 10:52:30;;;;;;;6.90;4.10;;;4.70;77.60;;;;;;5023488;28;20791;-48
2021/12/10 10:55:12;;;;;;;5.20;4.43;;;4.60;77.60;;;;;;5038007;28;20479;-48
2021/12/10 10:57:53;;;;;;;6.17;4.70;;;4.60;77.70;;;;;;5036681;28;20529;-48
2021/12/10 11:00:51;;;;;;;6.33;4.20;;;4.70;77.70;;;;;;5038003;28;20468;-48
2021/12/10 11:03:44;;;;;;;6.07;4.00;;;4.70;77.30;;;;;;5038486;28;20451;-47
2021/12/10 11:06:17;;;;;;;8.67;4.07;;;4.70;76.30;;;;;;5039930;28;20475;-48
2021/12/10 11:08:53;;;;;;;8.10;6.73;;;4.70;76.30;;;;;;5036933;28;20549;-48
2021/12/10 11:11:34;;;;;;;9.60;5.67;;;4.70;76.20;;;;;;5036498;28;20461;-48
2021/12/10 11:14:36;;;;;;;3.20;2.90;;;4.70;76.40;;;;;;5022027;28;20455;-48
2021/12/10 11:17:16;;;;;;;7.40;4.30;;;4.70;76.00;;;;;;5041467;28;20455;-47
2021/12/10 11:19:54;;;;;;;7.67;3.63;;;4.80;75.90;;;;;;5035485;28;20554;-48
2021/12/10 11:22:23;;;;;;;3.70;2.80;;;4.80;75.50;;;;;;5038432;28;20457;-48
2021/12/10 11:24:57;;;;;;;4.73;3.27;;;4.80;75.00;;;;;;5041210;28;20477;-48
2021/12/10 11:27:37;;;;;;;6.40;3.63;;;4.80;74.30;;;;;;5029905;28;20514;-48
2021/12/10 11:30:23;;;;;;;3.37;2.70;;;4.80;74.50;;;;;;5039436;28;20490;-48
2021/12/10 11:32:51;;;;;;;6.47;3.73;;;4.80;74.70;;;;;;5043908;28;20452;-48
2021/12/10 11:35:18;;;;;;;5.80;3.10;;;4.70;74.90;;;;;;5041761;28;20475;-48
2021/12/10 11:38:07;;;;;;;3.77;3.40;;;4.70;75.10;;;;;;5035360;28;20454;-48
2021/12/10 11:40:40;;;;;;;3.30;3.00;;;4.80;74.80;;;;;;5036311;28;20470;-48
2021/12/10 11:43:43;;;;;;;6.63;4.10;;;4.80;74.70;;;;;;5043843;28;20480;-47
2021/12/10 11:49:09;;;;;;;9.17;3.47;;;4.70;74.80;;;;;;5041605;28;20474;-48
2021/12/10 11:52:04;;;;;;;3.53;3.23;;;4.80;74.90;;;;;;5030796;28;20480;-48
2021/12/10 11:54:43;;;;;;;5.23;3.83;;;4.70;74.20;;;;;;5039935;28;20459;-48
2021/12/10 11:57:10;;;;;;;4.10;3.40;;;4.60;74.90;;;;;;5028007;28;20476;-48
2021/12/10 11:59:38;;;;;;;3.70;3.40;;;4.60;75.30;;;;;;5041681;28;20498;-48
2021/12/10 12:02:14;;;;;;;4.40;3.07;;;4.70;75.60;;;;;;5041210;28;20490;-47
2021/12/10 12:04:41;;;;;;;4.33;3.33;;;4.70;75.60;;;;;;5030046;28;20524;-47
2021/12/10 12:07:38;;;;;;;11.50;4.17;;;4.80;75.00;;;;;;5035188;28;20500;-47
2021/12/10 12:10:33;;;;;;;6.23;3.20;;;4.80;74.90;;;;;;5017603;28;20635;-48
2021/12/10 12:15:50;;;;;;;4.77;3.87;;;4.80;74.80;;;;;;5040096;28;20460;-48
2021/12/10 12:18:24;;;;;;;6.80;4.10;;;4.80;75.50;;;;;;5039307;28;20514;-48
2021/12/10 12:21:37;;;;;;;5.73;3.77;;;4.80;75.80;;;;;;5042565;28;20455;-48
2021/12/10 12:26:40;;;;;;;7.60;4.00;;;4.60;77.30;;;;;;5035635;28;20494;-48
2021/12/10 12:29:48;;;;;;;11.87;5.90;;;4.60;77.80;;;;;;5023907;28;20460;-48
2021/12/10 12:32:22;;;;;;;4.13;3.60;;;4.60;78.70;;;;;;5037894;28;20470;-48
2021/12/10 12:34:50;;;;;;;11.30;4.73;;;4.50;79.80;;;;;;5035395;28;20459;-48
2021/12/10 12:37:19;;;;;;;5.00;3.80;;;4.40;80.30;;;;;;5037409;28;20485;-48
2021/12/10 12:40:06;;;;;;;6.57;4.47;;;4.40;80.70;;;;;;5028572;28;21043;-48
2021/12/10 12:42:37;;;;;;;6.20;4.07;;;4.40;81.20;;;;;;5008256;28;20551;-48
2021/12/10 12:45:03;;;;;;;6.50;3.80;;;4.40;81.30;;;;;;4996512;28;20484;-48
2021/12/10 12:47:54;;;;;;;6.07;4.27;;;4.40;81.50;;;;;;5029248;28;20490;-48
2021/12/10 12:50:43;;;;;;;6.87;3.90;;;4.40;81.70;;;;;;5027623;28;20464;-48
2021/12/10 12:53:16;;;;;;;6.57;4.53;;;4.30;81.90;;;;;;5013744;28;20467;-48
2021/12/10 12:55:43;;;;;;;4.50;3.70;;;4.30;82.10;;;;;;5016453;28;20454;-48
2021/12/10 12:58:10;;;;;;;6.63;3.70;;;4.30;82.30;;;;;;5020758;28;20463;-48
2021/12/10 13:00:57;;;;;;;6.67;4.20;;;4.30;82.40;;;;;;5038557;28;20464;-48
2021/12/10 13:03:29;;;;;;;7.33;4.27;;;4.30;82.50;;;;;;5034642;28;20491;-48
2021/12/10 13:06:31;;;;;;;6.40;3.53;;;4.30;82.70;;;;;;5028004;28;20459;-48
2021/12/10 13:09:04;;;;;;;5.40;3.40;;;4.30;82.90;;;;;;5028041;28;20471;-48
2021/12/10 13:11:54;;;;;;;11.10;3.93;;;4.30;83.10;;;;;;5031347;28;20451;-48
2021/12/10 13:14:30;;;;;;;6.33;3.57;;;4.30;83.30;;;;;;5010022;28;20456;-48
2021/12/10 13:17:08;;;;;;;3.77;3.40;;;4.20;83.50;;;;;;5027875;28;20549;-48
2021/12/10 13:19:35;;;;;;;6.83;4.10;;;4.20;83.70;;;;;;5012433;28;20501;-48
2021/12/10 13:22:11;;;;;;;4.00;3.60;;;4.20;83.90;;;;;;5027129;28;20482;-48
2021/12/10 13:24:41;;;;;;;2.90;2.70;;;4.20;84.10;;;;;;5007271;28;20468;-48
2021/12/10 13:27:09;;;;;;;4.67;3.20;;;4.20;84.20;;;;;;5032957;28;20487;-48
2021/12/10 13:29:39;;;;;;;7.67;2.87;;;4.20;84.30;;;;;;5026312;28;20452;-48
2021/12/10 13:32:08;;;;;;;3.47;3.07;;;4.20;84.20;;;;;;5025510;28;20629;-48